Time;durP1;ratioP1;P1;durP2;ratioP2;P2;SDS_P1;SDS_P2;PMS_P1;PMS_P2;Temp;Humidity;BMP_temperature;BMP_pressure;BME280_temperature;BME280_humidity;BME280_pressure;Samples;Min_cycle;Max_cycle;Signal;HPM_P1;HPM_P2
2022/09/27 00:02:22;;;;;;;7.80;2.00;;;10.30;99.90;;;;;;4956295;28;20491;-78
2022/09/27 00:04:47;;;;;;;9.80;2.00;;;10.50;99.90;;;;;;4956727;29;20051;-80
2022/09/27 00:07:13;;;;;;;7.07;1.80;;;10.20;99.90;;;;;;4956356;28;20039;-79
2022/09/27 00:09:39;;;;;;;9.18;1.98;;;10.20;99.90;;;;;;4956338;29;20051;-80
2022/09/27 00:12:04;;;;;;;7.47;1.88;;;10.20;99.90;;;;;;4956198;29;20043;-81
2022/09/27 00:14:30;;;;;;;12.05;2.00;;;10.20;99.90;;;;;;4956329;28;20396;-80
2022/09/27 00:16:55;;;;;;;7.63;1.55;;;10.20;99.90;;;;;;4955810;28;20059;-80
2022/09/27 00:19:22;;;;;;;6.93;1.63;;;10.10;99.90;;;;;;4956105;28;20051;-83
2022/09/27 00:21:49;;;;;;;8.18;1.73;;;10.20;99.90;;;;;;4956104;28;20051;-81
2022/09/27 00:24:20;;;;;;;5.78;1.60;;;10.10;99.90;;;;;;4955946;28;20047;-79
2022/09/27 00:26:46;;;;;;;6.30;1.65;;;10.10;99.90;;;;;;4955981;28;20047;-82
2022/09/27 00:29:13;;;;;;;7.28;1.85;;;10.00;99.90;;;;;;4956068;28;20495;-78
2022/09/27 00:31:39;;;;;;;;;;;10.00;99.90;;;;;;4956028;28;20487;-77
2022/09/27 00:34:06;;;;;;;10.50;1.80;;;10.00;99.90;;;;;;4955353;28;19994;-78
2022/09/27 00:36:33;;;;;;;5.65;1.55;;;9.90;99.90;;;;;;4955844;29;20043;-77
2022/09/27 00:38:59;;;;;;;7.65;1.58;;;9.90;99.90;;;;;;4955653;28;20091;-78
2022/09/27 00:41:34;;;;;;;7.03;1.48;;;9.80;99.90;;;;;;4955882;28;20106;-78
2022/09/27 00:44:03;;;;;;;5.43;1.45;;;9.80;99.90;;;;;;4955571;29;20558;-81
2022/09/27 00:46:33;;;;;;;10.18;1.40;;;9.70;99.90;;;;;;4955782;28;20054;-80
2022/09/27 00:49:13;;;;;;;7.40;1.55;;;9.70;99.90;;;;;;4955703;28;20051;-81
2022/09/27 00:51:41;;;;;;;4.65;1.42;;;9.70;99.90;;;;;;4956316;29;20051;-79
2022/09/27 00:54:11;;;;;;;7.75;1.38;;;9.70;99.90;;;;;;4955568;28;20514;-79
2022/09/27 00:56:38;;;;;;;5.40;1.40;;;9.60;99.90;;;;;;4955556;28;20495;-78
2022/09/27 00:59:29;;;;;;;6.97;2.13;;;9.60;99.90;;;;;;4954708;29;20497;-82
2022/09/27 01:01:55;;;;;;;6.25;1.27;;;9.50;99.90;;;;;;4955038;29;20150;-79
2022/09/27 01:04:23;;;;;;;4.28;1.38;;;9.50;99.90;;;;;;4955532;28;20079;-81
2022/09/27 01:06:49;;;;;;;7.43;1.52;;;9.50;99.90;;;;;;4955492;28;20126;-82
2022/09/27 01:09:15;;;;;;;5.75;1.90;;;9.50;99.90;;;;;;4955532;28;20126;-83
2022/09/27 01:12:11;;;;;;;2.72;1.08;;;9.50;99.90;;;;;;4955605;28;20134;-79
2022/09/27 01:14:36;;;;;;;4.72;1.08;;;9.50;99.90;;;;;;4955731;28;20055;-77
2022/09/27 01:17:39;;;;;;;8.05;1.10;;;9.40;99.90;;;;;;4955548;29;20047;-80
2022/09/27 01:20:14;;;;;;;2.47;0.82;;;9.40;99.90;;;;;;4955433;28;20050;-78
2022/09/27 01:23:12;;;;;;;7.60;1.17;;;9.40;99.90;;;;;;4955611;28;20039;-80
2022/09/27 01:25:49;;;;;;;5.00;1.03;;;9.40;99.90;;;;;;4955394;28;20052;-82
2022/09/27 01:28:41;;;;;;;3.08;0.82;;;9.40;99.90;;;;;;4955385;29;20082;-79
2022/09/27 01:31:18;;;;;;;3.50;0.80;;;9.40;99.90;;;;;;4955376;28;20412;-81
2022/09/27 01:34:09;;;;;;;4.95;1.33;;;9.40;99.90;;;;;;4955177;28;20480;-81
2022/09/27 01:36:51;;;;;;;3.58;1.00;;;9.70;99.90;;;;;;4955803;28;20125;-78
2022/09/27 01:39:42;;;;;;;4.63;1.02;;;9.40;99.90;;;;;;4955261;28;20085;-80
2022/09/27 01:42:28;;;;;;;3.47;0.70;;;9.40;99.90;;;;;;4955315;28;20056;-82
2022/09/27 01:45:05;;;;;;;3.65;0.90;;;9.60;99.90;;;;;;4956122;28;20078;-78
2022/09/27 01:47:51;;;;;;;2.05;0.75;;;9.40;99.90;;;;;;4959230;28;20474;-79
2022/09/27 01:50:30;;;;;;;3.35;1.20;;;9.30;99.90;;;;;;4958504;29;20521;-79
2022/09/27 01:53:10;;;;;;;4.93;0.93;;;9.40;99.90;;;;;;4958666;28;20047;-81
2022/09/27 01:55:37;;;;;;;3.03;0.93;;;9.80;99.90;;;;;;4958788;28;20097;-82
2022/09/27 01:58:26;;;;;;;4.10;0.85;;;9.30;99.90;;;;;;4957469;28;20395;-77
2022/09/27 02:00:54;;;;;;;4.13;0.95;;;9.30;99.90;;;;;;4958844;28;20051;-77
2022/09/27 02:03:27;;;;;;;2.00;0.77;;;9.30;99.90;;;;;;4958514;28;20054;-79
2022/09/27 02:05:59;;;;;;;2.70;0.93;;;9.30;99.90;;;;;;4958289;28;20526;-81
2022/09/27 02:08:37;;;;;;;2.83;0.80;;;9.30;99.90;;;;;;4958865;28;20058;-81
2022/09/27 02:11:08;;;;;;;3.13;0.80;;;9.30;99.90;;;;;;4958447;28;20051;-82
2022/09/27 02:13:51;;;;;;;5.47;1.23;;;9.30;99.90;;;;;;4958467;28;20040;-78
2022/09/27 02:16:38;;;;;;;1.63;0.90;;;9.30;99.90;;;;;;4958323;29;20554;-80
2022/09/27 02:19:21;;;;;;;5.82;0.82;;;9.30;99.90;;;;;;4958320;29;20086;-81
2022/09/27 02:22:21;;;;;;;4.00;1.00;;;9.30;99.90;;;;;;4958270;28;20106;-78
2022/09/27 02:24:55;;;;;;;3.38;1.00;;;9.30;99.90;;;;;;4958145;28;20479;-80
2022/09/27 02:27:37;;;;;;;4.18;1.00;;;9.20;99.90;;;;;;4958177;28;20079;-77
2022/09/27 02:30:09;;;;;;;5.50;1.10;;;9.20;99.90;;;;;;4958147;28;20086;-81
2022/09/27 02:32:35;;;;;;;3.35;0.82;;;9.30;99.90;;;;;;4958056;28;20063;-79
2022/09/27 02:35:06;;;;;;;5.03;0.95;;;9.20;99.90;;;;;;4958038;28;20047;-78
2022/09/27 02:37:33;;;;;;;3.78;0.90;;;9.20;99.90;;;;;;4957896;28;20396;-81
2022/09/27 02:39:59;;;;;;;0.77;0.63;;;9.20;99.90;;;;;;4957871;28;20063;-81
2022/09/27 02:42:25;;;;;;;3.72;1.00;;;9.30;99.90;;;;;;4957665;28;20057;-80
2022/09/27 02:44:51;;;;;;;2.53;1.00;;;9.20;99.90;;;;;;4957866;28;20051;-79
2022/09/27 02:47:28;;;;;;;2.53;0.90;;;9.20;99.90;;;;;;4957713;28;20073;-81
2022/09/27 02:49:56;;;;;;;5.78;1.75;;;9.20;99.90;;;;;;4957781;28;20504;-79
2022/09/27 02:52:55;;;;;;;3.13;0.98;;;9.20;99.90;;;;;;4957993;29;20102;-80
2022/09/27 02:55:41;;;;;;;3.08;0.70;;;9.20;99.90;;;;;;4957790;28;20440;-80
2022/09/27 02:58:15;;;;;;;5.00;1.00;;;9.20;99.90;;;;;;4957190;28;20091;-82
2022/09/27 03:00:48;;;;;;;3.88;0.80;;;9.20;99.90;;;;;;4957560;29;20130;-80
2022/09/27 03:03:21;;;;;;;2.05;0.70;;;9.20;99.90;;;;;;4957629;28;20047;-81
2022/09/27 03:06:05;;;;;;;3.38;0.70;;;9.40;99.90;;;;;;4957465;28;20055;-82
2022/09/27 03:08:31;;;;;;;1.75;0.77;;;9.10;99.90;;;;;;4957339;28;20111;-79
2022/09/27 03:10:56;;;;;;;1.83;0.77;;;9.10;99.90;;;;;;4957410;28;20059;-80
2022/09/27 03:13:22;;;;;;;2.63;0.85;;;9.30;99.90;;;;;;4957292;29;20040;-78
2022/09/27 03:15:47;;;;;;;3.92;1.05;;;9.10;99.90;;;;;;4957508;28;20086;-78
2022/09/27 03:18:13;;;;;;;2.92;0.90;;;9.20;99.90;;;;;;4957350;29;20043;-80
2022/09/27 03:20:39;;;;;;;1.67;0.73;;;9.00;99.90;;;;;;4957135;29;20047;-78
2022/09/27 03:23:04;;;;;;;6.57;1.88;;;9.00;99.90;;;;;;4957005;28;20043;-82
2022/09/27 03:25:30;;;;;;;1.58;0.70;;;9.00;99.90;;;;;;4957171;28;20125;-78
2022/09/27 03:27:55;;;;;;;6.00;1.13;;;9.00;99.90;;;;;;4957021;29;20462;-81
2022/09/27 03:30:21;;;;;;;4.13;0.88;;;9.00;99.90;;;;;;4957049;28;20055;-81
2022/09/27 03:32:47;;;;;;;2.00;0.82;;;8.90;99.90;;;;;;4956994;28;20106;-81
2022/09/27 03:35:13;;;;;;;5.55;1.10;;;8.90;99.90;;;;;;4957018;28;20039;-81
2022/09/27 03:37:39;;;;;;;3.65;0.90;;;8.90;99.90;;;;;;4956905;28;20069;-76
2022/09/27 03:40:06;;;;;;;3.22;0.90;;;8.90;99.90;;;;;;4956472;28;20082;-82
2022/09/27 03:42:32;;;;;;;4.10;0.93;;;8.90;99.90;;;;;;4956479;28;20504;-79
2022/09/27 03:44:59;;;;;;;4.22;1.00;;;8.80;99.90;;;;;;4956722;28;20126;-80
2022/09/27 03:47:24;;;;;;;4.78;0.80;;;8.80;99.90;;;;;;4956661;28;20086;-79
2022/09/27 03:49:50;;;;;;;4.53;0.98;;;8.80;99.90;;;;;;4956705;29;20063;-80
2022/09/27 03:52:17;;;;;;;2.05;0.77;;;8.80;99.90;;;;;;4956526;28;20051;-78
2022/09/27 03:54:43;;;;;;;3.83;0.80;;;8.80;99.90;;;;;;4956530;28;20082;-78
2022/09/27 03:57:09;;;;;;;4.72;0.80;;;8.80;99.90;;;;;;4956534;28;20043;-78
2022/09/27 03:59:34;;;;;;;1.70;0.63;;;8.70;99.90;;;;;;4956638;28;20369;-81
2022/09/27 04:02:00;;;;;;;3.92;1.25;;;8.70;99.90;;;;;;4956407;28;20526;-79
2022/09/27 04:04:25;;;;;;;5.70;0.90;;;8.70;99.90;;;;;;4956313;29;20396;-78
2022/09/27 04:06:51;;;;;;;2.88;0.90;;;8.70;99.90;;;;;;4956316;28;20051;-79
2022/09/27 04:09:16;;;;;;;4.15;1.15;;;8.90;99.90;;;;;;4955541;28;20389;-81
2022/09/27 04:11:42;;;;;;;2.30;0.85;;;8.70;99.90;;;;;;4956249;29;20058;-78
2022/09/27 04:14:08;;;;;;;2.92;0.80;;;8.70;99.90;;;;;;4956226;29;20050;-76
2022/09/27 04:16:34;;;;;;;3.25;0.80;;;8.70;99.90;;;;;;4956407;28;20055;-76
2022/09/27 04:19:03;;;;;;;1.77;0.60;;;8.70;99.90;;;;;;4956271;29;20155;-79
2022/09/27 04:21:28;;;;;;;3.17;0.77;;;8.70;99.90;;;;;;4956028;28;20058;-80
2022/09/27 04:23:54;;;;;;;4.95;0.73;;;8.70;99.90;;;;;;4956038;28;20043;-79
2022/09/27 04:26:19;;;;;;;1.40;0.63;;;8.60;99.90;;;;;;4956114;28;20106;-80
2022/09/27 04:28:46;;;;;;;2.17;0.65;;;8.60;99.90;;;;;;4955716;28;20047;-81
2022/09/27 04:31:11;;;;;;;4.80;0.95;;;8.60;99.90;;;;;;4955999;28;20117;-80
2022/09/27 04:33:37;;;;;;;1.85;0.70;;;8.60;99.90;;;;;;4955707;28;20475;-80
2022/09/27 04:38:47;;;;;;;1.23;0.60;;;8.60;99.90;;;;;;4955719;28;20055;-80
2022/09/27 04:41:13;;;;;;;1.23;0.68;;;8.50;99.90;;;;;;4956209;28;20053;-79
2022/09/27 04:43:39;;;;;;;2.33;0.85;;;8.50;99.90;;;;;;4955541;28;20171;-79
2022/09/27 04:46:04;;;;;;;1.27;0.77;;;8.90;99.90;;;;;;4955849;28;20122;-79
2022/09/27 04:48:30;;;;;;;3.30;0.70;;;8.50;99.90;;;;;;4955742;28;20422;-78
2022/09/27 04:51:01;;;;;;;1.70;0.82;;;8.50;99.90;;;;;;4955661;29;20589;-78
2022/09/27 04:53:28;;;;;;;1.38;0.63;;;8.50;99.90;;;;;;4955986;28;20039;-77
2022/09/27 04:55:54;;;;;;;4.78;1.00;;;8.50;99.90;;;;;;4955598;28;20051;-79
2022/09/27 04:58:23;;;;;;;2.20;0.70;;;8.50;99.90;;;;;;4955692;28;20058;-78
2022/09/27 05:00:54;;;;;;;1.45;0.73;;;8.50;99.90;;;;;;4955777;28;20066;-80
2022/09/27 05:03:20;;;;;;;1.83;0.80;;;8.50;99.90;;;;;;4955507;28;20047;-81
2022/09/27 05:05:46;;;;;;;2.28;0.80;;;8.50;99.90;;;;;;4956041;28;20419;-78
2022/09/27 05:08:12;;;;;;;2.08;0.90;;;8.50;99.90;;;;;;4955506;28;20051;-78
2022/09/27 05:10:37;;;;;;;2.60;0.82;;;8.60;99.90;;;;;;4955932;28;20105;-82
2022/09/27 05:13:03;;;;;;;1.40;0.70;;;8.70;99.90;;;;;;4955514;28;20488;-79
2022/09/27 05:15:29;;;;;;;2.03;0.60;;;8.50;99.90;;;;;;4955615;28;20047;-79
2022/09/27 05:17:55;;;;;;;4.50;1.08;;;8.40;99.90;;;;;;4955498;28;20506;-78
2022/09/27 05:20:21;;;;;;;2.53;0.68;;;8.40;99.90;;;;;;4957054;28;20039;-78
2022/09/27 05:22:46;;;;;;;3.57;0.80;;;8.40;99.90;;;;;;4959225;28;20376;-78
2022/09/27 05:25:12;;;;;;;1.08;0.82;;;8.40;99.90;;;;;;4959262;29;20062;-80
2022/09/27 05:27:38;;;;;;;3.15;0.90;;;8.40;99.90;;;;;;4959426;28;20043;-81
2022/09/27 05:30:06;;;;;;;1.20;0.75;;;8.40;99.90;;;;;;4959155;28;20051;-82
2022/09/27 05:32:33;;;;;;;2.22;0.70;;;8.40;99.90;;;;;;4959085;28;20065;-79
2022/09/27 05:34:59;;;;;;;1.95;0.70;;;8.90;99.90;;;;;;4958105;28;20416;-78
2022/09/27 05:37:24;;;;;;;1.67;0.70;;;8.40;99.90;;;;;;4959101;28;20114;-78
2022/09/27 05:39:50;;;;;;;3.75;0.85;;;8.80;99.90;;;;;;4958897;28;20059;-78
2022/09/27 05:42:17;;;;;;;2.33;1.03;;;8.50;99.90;;;;;;4958931;28;20411;-80
2022/09/27 05:44:45;;;;;;;3.00;0.68;;;8.80;99.90;;;;;;4958854;28;20467;-81
2022/09/27 05:47:11;;;;;;;4.63;0.80;;;8.60;99.90;;;;;;4958796;28;20047;-79
2022/09/27 05:49:39;;;;;;;2.47;0.82;;;8.60;99.90;;;;;;4958763;28;20550;-82
2022/09/27 05:52:05;;;;;;;1.20;0.70;;;8.50;99.90;;;;;;4959120;28;20047;-78
2022/09/27 05:54:31;;;;;;;3.92;0.73;;;8.50;99.90;;;;;;4958758;28;20393;-80
2022/09/27 05:56:58;;;;;;;4.90;0.80;;;8.50;99.90;;;;;;4958664;28;20134;-80
2022/09/27 05:59:27;;;;;;;1.85;0.60;;;8.60;99.90;;;;;;4958618;28;20133;-81
2022/09/27 06:01:53;;;;;;;3.30;0.80;;;8.60;99.90;;;;;;4958471;28;20070;-79
2022/09/27 06:04:19;;;;;;;3.00;0.75;;;8.60;99.90;;;;;;4958821;28;20035;-79
2022/09/27 06:06:46;;;;;;;3.00;0.85;;;8.60;99.90;;;;;;4959147;28;20052;-78
2022/09/27 06:09:13;;;;;;;3.78;1.05;;;9.00;99.90;;;;;;4958685;28;20062;-77
2022/09/27 06:11:39;;;;;;;3.33;0.80;;;8.70;99.90;;;;;;4958349;28;20055;-79
2022/09/27 06:14:04;;;;;;;3.50;0.93;;;8.70;99.90;;;;;;4958465;29;20066;-77
2022/09/27 06:16:30;;;;;;;2.70;0.85;;;8.70;99.90;;;;;;4958282;29;20054;-78
2022/09/27 06:18:56;;;;;;;3.13;0.90;;;8.70;99.90;;;;;;4958349;28;20543;-80
2022/09/27 06:21:23;;;;;;;2.78;1.00;;;8.70;99.90;;;;;;4958475;28;20051;-80
2022/09/27 06:23:48;;;;;;;4.57;1.15;;;8.70;99.90;;;;;;4957824;29;20483;-78
2022/09/27 06:26:15;;;;;;;5.07;0.90;;;8.80;99.90;;;;;;4958182;28;20047;-78
2022/09/27 06:28:40;;;;;;;4.57;1.05;;;8.70;99.90;;;;;;4958149;28;20087;-78
2022/09/27 06:31:10;;;;;;;5.07;1.20;;;8.70;99.90;;;;;;4957760;28;20094;-80
2022/09/27 06:33:36;;;;;;;1.25;0.80;;;9.20;99.90;;;;;;4957930;28;20130;-78
2022/09/27 06:36:06;;;;;;;3.28;0.90;;;8.80;99.90;;;;;;4957965;28;20499;-80
2022/09/27 06:38:32;;;;;;;2.83;0.90;;;8.80;99.90;;;;;;4957900;28;20098;-80
2022/09/27 06:41:01;;;;;;;2.55;0.90;;;9.40;99.90;;;;;;4957915;28;20439;-81
2022/09/27 06:43:26;;;;;;;3.35;0.90;;;8.80;99.90;;;;;;4957832;28;20376;-80
2022/09/27 06:45:52;;;;;;;3.40;1.00;;;8.90;99.90;;;;;;4957760;29;20051;-80
2022/09/27 06:48:18;;;;;;;4.10;1.13;;;8.90;99.90;;;;;;4957864;28;20043;-78
2022/09/27 06:50:45;;;;;;;2.70;0.75;;;8.90;99.90;;;;;;4957736;28;20046;-77
2022/09/27 06:53:13;;;;;;;4.63;1.17;;;9.00;99.90;;;;;;4957647;28;20054;-79
2022/09/27 06:55:39;;;;;;;5.32;1.33;;;9.60;99.90;;;;;;4957601;28;20387;-79
2022/09/27 07:00:52;;;;;;;3.78;1.30;;;9.00;99.90;;;;;;4958188;28;20408;-79
2022/09/27 07:03:25;;;;;;;3.05;0.90;;;9.00;99.90;;;;;;4957431;28;20054;-79
2022/09/27 07:05:58;;;;;;;4.38;1.42;;;9.00;99.90;;;;;;4957485;28;20047;-83
2022/09/27 07:08:27;;;;;;;2.50;1.05;;;9.00;99.90;;;;;;4957457;28;20087;-82
2022/09/27 07:10:54;;;;;;;3.25;1.10;;;9.10;99.90;;;;;;4957055;28;20055;-80
2022/09/27 07:13:20;;;;;;;7.35;1.13;;;9.60;99.90;;;;;;4957313;28;20075;-82
2022/09/27 07:15:46;;;;;;;3.30;0.80;;;9.20;99.90;;;;;;4957586;29;20078;-79
2022/09/27 07:18:11;;;;;;;3.53;1.10;;;9.20;99.90;;;;;;4957278;28;20046;-78
2022/09/27 07:20:37;;;;;;;2.28;0.95;;;9.30;99.90;;;;;;4957202;29;20051;-80
2022/09/27 07:23:07;;;;;;;4.40;0.98;;;9.40;99.90;;;;;;4956863;28;20388;-81
2022/09/27 07:25:33;;;;;;;5.75;1.35;;;9.40;99.90;;;;;;4957090;28;20059;-79
2022/09/27 07:28:04;;;;;;;3.58;0.90;;;9.60;99.90;;;;;;4957079;28;20051;-80
2022/09/27 07:30:31;;;;;;;4.15;0.90;;;9.70;99.90;;;;;;4956831;28;20483;-81
2022/09/27 07:32:58;;;;;;;5.00;1.40;;;9.80;99.90;;;;;;4956974;28;20051;-78
2022/09/27 07:35:24;;;;;;;6.00;1.23;;;9.90;99.90;;;;;;4956903;28;20043;-79
2022/09/27 07:37:50;;;;;;;2.47;0.88;;;10.00;99.90;;;;;;4956863;28;20221;-82
2022/09/27 07:40:16;;;;;;;2.75;0.85;;;10.20;99.90;;;;;;4957098;28;20122;-79
2022/09/27 07:42:41;;;;;;;5.70;0.90;;;10.20;99.90;;;;;;4956665;28;20175;-78
2022/09/27 07:45:08;;;;;;;2.45;0.90;;;10.30;99.90;;;;;;4956800;28;20387;-81
2022/09/27 07:47:36;;;;;;;3.15;1.08;;;10.30;99.90;;;;;;4956703;28;20051;-77
2022/09/27 07:50:03;;;;;;;7.05;1.20;;;10.30;99.90;;;;;;4956437;28;20541;-80
2022/09/27 07:52:29;;;;;;;2.55;1.00;;;10.40;99.90;;;;;;4956489;28;20047;-81
2022/09/27 07:54:54;;;;;;;2.00;1.10;;;10.50;99.90;;;;;;4957010;28;20062;-82
2022/09/27 07:57:21;;;;;;;3.88;1.13;;;11.00;99.90;;;;;;4956978;29;20198;-80
2022/09/27 07:59:47;;;;;;;;;;;10.50;99.90;;;;;;4957200;28;20106;-78
2022/09/27 08:02:14;;;;;;;1.95;0.60;;;10.50;99.90;;;;;;4956779;29;20359;-77
2022/09/27 08:04:42;;;;;;;3.15;0.90;;;10.50;99.90;;;;;;4956446;28;20062;-78
2022/09/27 08:07:09;;;;;;;2.15;0.65;;;10.40;99.90;;;;;;4956291;28;20070;-79
2022/09/27 08:09:34;;;;;;;2.53;0.85;;;10.40;99.90;;;;;;4957132;28;20383;-79
2022/09/27 08:12:00;;;;;;;6.78;0.90;;;10.40;99.90;;;;;;4956313;28;20050;-80
2022/09/27 08:14:26;;;;;;;2.63;1.08;;;10.70;99.90;;;;;;4956262;28;20055;-80
2022/09/27 08:16:52;;;;;;;3.67;0.90;;;10.30;99.90;;;;;;4956186;29;20043;-81
2022/09/27 08:19:18;;;;;;;7.88;0.98;;;10.30;99.90;;;;;;4956158;29;20043;-81
2022/09/27 08:21:43;;;;;;;3.00;1.15;;;10.20;99.90;;;;;;4956068;28;20128;-79
2022/09/27 08:24:09;;;;;;;3.35;0.95;;;10.20;99.90;;;;;;4956056;28;20044;-82
2022/09/27 08:26:35;;;;;;;4.73;0.77;;;10.10;99.90;;;;;;4956114;28;20051;-79
2022/09/27 08:29:01;;;;;;;4.18;1.13;;;10.00;99.90;;;;;;4956073;28;20074;-80
2022/09/27 08:31:26;;;;;;;3.88;0.70;;;10.10;99.90;;;;;;4955982;28;20057;-78
2022/09/27 08:33:52;;;;;;;6.50;0.95;;;10.20;99.90;;;;;;4956175;28;20467;-78
2022/09/27 08:36:19;;;;;;;2.70;0.77;;;10.20;99.90;;;;;;4955951;29;20054;-79
2022/09/27 08:38:48;;;;;;;2.78;0.93;;;10.40;99.90;;;;;;4955985;28;20131;-80
2022/09/27 08:41:36;;;;;;;3.60;0.85;;;10.60;99.90;;;;;;4955913;28;20055;-83
2022/09/27 08:44:21;;;;;;;;;;;10.70;99.90;;;;;;4956208;28;20046;-76
2022/09/27 08:47:05;;;;;;;4.38;0.70;;;10.90;99.90;;;;;;4955713;28;20321;-80
2022/09/27 08:49:39;;;;;;;5.10;0.93;;;11.20;99.90;;;;;;4955495;28;20043;-80
2022/09/27 08:52:12;;;;;;;1.10;0.65;;;11.20;99.90;;;;;;4954875;29;20051;-81
2022/09/27 08:54:38;;;;;;;2.30;0.68;;;11.30;99.90;;;;;;4955263;28;20403;-81
2022/09/27 08:57:10;;;;;;;2.97;0.80;;;11.50;99.90;;;;;;4955798;28;20400;-79
2022/09/27 08:59:47;;;;;;;3.17;0.80;;;11.70;99.90;;;;;;4955651;28;20048;-78
2022/09/27 09:02:23;;;;;;;5.18;0.90;;;11.90;99.90;;;;;;4955718;28;20043;-78
2022/09/27 09:04:55;;;;;;;2.25;0.70;;;12.10;99.90;;;;;;4955873;28;20074;-81
2022/09/27 09:07:36;;;;;;;3.03;0.73;;;12.30;99.90;;;;;;4955607;28;20052;-79
2022/09/27 09:12:45;;;;;;;5.13;1.02;;;12.40;99.90;;;;;;4955581;28;20427;-79
2022/09/27 09:13:21;;;;;;;3.25;0.80;;;12.60;99.90;;;;;;4956014;29;20043;-78
2022/09/27 09:16:05;;;;;;;1.52;0.70;;;12.60;99.90;;;;;;4955648;28;20101;-80
2022/09/27 09:18:45;;;;;;;2.03;0.73;;;12.70;99.90;;;;;;4955901;28;20055;-77
2022/09/27 09:21:55;;;;;;;3.22;0.50;;;12.80;99.90;;;;;;4955795;28;20051;-81
2022/09/27 09:24:26;;;;;;;1.98;0.60;;;12.90;99.90;;;;;;4954839;28;20132;-78
2022/09/27 09:27:19;;;;;;;1.95;0.73;;;12.90;99.90;;;;;;4955477;29;20050;-80
2022/09/27 09:30:12;;;;;;;2.40;0.63;;;12.90;99.90;;;;;;4955645;29;20086;-78
2022/09/27 09:33:04;;;;;;;3.10;0.50;;;13.10;99.90;;;;;;4955402;28;20058;-79
2022/09/27 09:35:40;;;;;;;1.05;0.50;;;13.10;99.90;;;;;;4955343;28;20129;-77
2022/09/27 09:38:15;;;;;;;1.27;0.60;;;13.10;99.90;;;;;;4955659;28;20082;-78
2022/09/27 09:40:47;;;;;;;1.35;0.43;;;13.10;99.90;;;;;;4955494;29;20146;-83
2022/09/27 09:43:24;;;;;;;2.25;0.50;;;13.00;99.90;;;;;;4955198;28;20043;-78
2022/09/27 09:46:01;;;;;;;1.27;0.47;;;13.00;99.90;;;;;;4955291;28;20043;-82
2022/09/27 09:48:45;;;;;;;2.43;0.60;;;13.10;99.90;;;;;;4955231;28;20145;-78
2022/09/27 09:51:21;;;;;;;1.40;0.60;;;13.20;99.90;;;;;;4955258;28;20082;-77
2022/09/27 09:54:05;;;;;;;2.65;0.70;;;12.90;99.90;;;;;;4955141;28;20055;-79
2022/09/27 09:56:34;;;;;;;1.17;0.60;;;13.10;99.90;;;;;;4954614;29;20055;-78
2022/09/27 09:59:08;;;;;;;2.92;0.80;;;13.20;99.90;;;;;;4955091;28;20039;-78
2022/09/27 10:01:40;;;;;;;1.27;0.73;;;13.10;99.90;;;;;;4955405;28;20049;-77
2022/09/27 10:04:08;;;;;;;4.00;0.80;;;13.20;99.90;;;;;;4955001;28;20134;-79
2022/09/27 10:06:34;;;;;;;2.13;0.63;;;13.20;99.90;;;;;;4954764;28;20055;-79
2022/09/27 10:09:00;;;;;;;2.75;0.75;;;12.90;99.90;;;;;;4958500;28;20484;-77
2022/09/27 10:11:42;;;;;;;2.37;0.60;;;12.70;99.90;;;;;;4958497;29;20110;-77
2022/09/27 10:14:13;;;;;;;2.28;0.75;;;12.50;99.90;;;;;;4958618;28;20443;-79
2022/09/27 10:16:42;;;;;;;3.65;1.00;;;12.40;99.90;;;;;;4958271;28;20406;-78
2022/09/27 10:19:08;;;;;;;2.05;0.70;;;12.40;99.90;;;;;;4958320;28;20078;-81
2022/09/27 10:21:41;;;;;;;1.27;0.63;;;12.20;99.90;;;;;;4958339;29;20047;-77
2022/09/27 10:24:11;;;;;;;1.85;0.60;;;12.10;99.90;;;;;;4958520;28;20055;-78
2022/09/27 10:26:39;;;;;;;4.28;0.80;;;12.00;99.90;;;;;;4958558;29;20419;-80
2022/09/27 10:29:31;;;;;;;1.67;0.70;;;12.00;99.90;;;;;;4958382;28;20064;-76
2022/09/27 10:31:58;;;;;;;1.40;0.50;;;12.10;99.90;;;;;;4958169;28;20138;-76
2022/09/27 10:34:34;;;;;;;0.95;0.50;;;12.10;99.90;;;;;;4956702;29;20506;-77
2022/09/27 10:37:06;;;;;;;0.82;0.50;;;12.20;99.90;;;;;;4958192;28;20082;-77
2022/09/27 10:39:32;;;;;;;1.85;0.60;;;12.40;99.90;;;;;;4958013;28;20051;-81
2022/09/27 10:41:58;;;;;;;1.13;0.50;;;12.50;99.90;;;;;;4957941;28;20138;-79
2022/09/27 10:44:31;;;;;;;1.25;0.50;;;12.70;99.90;;;;;;4957846;28;20133;-78
2022/09/27 10:47:08;;;;;;;0.75;0.45;;;12.80;99.90;;;;;;4957858;28;20487;-82
2022/09/27 10:49:37;;;;;;;2.10;0.80;;;13.10;99.90;;;;;;4957854;28;20049;-75
2022/09/27 10:52:14;;;;;;;1.38;0.50;;;13.20;99.90;;;;;;4957748;28;20143;-77
2022/09/27 10:54:41;;;;;;;;;;;13.20;99.90;;;;;;4958167;29;20050;-79
2022/09/27 10:57:21;;;;;;;0.50;0.32;;;13.40;99.90;;;;;;4958032;28;19934;-78
2022/09/27 10:59:59;;;;;;;1.20;0.50;;;13.50;99.90;;;;;;4957701;28;20051;-80
2022/09/27 11:02:30;;;;;;;;;;;13.60;99.90;;;;;;4957696;28;20043;-77
2022/09/27 11:05:28;;;;;;;0.95;0.50;;;13.70;99.90;;;;;;4957443;28;19922;-80
2022/09/27 11:08:22;;;;;;;2.70;1.23;;;13.80;99.90;;;;;;4957417;28;20047;-77
2022/09/27 11:11:16;;;;;;;2.05;0.63;;;13.80;99.90;;;;;;4957602;28;20503;-80
2022/09/27 11:14:03;;;;;;;3.08;0.60;;;13.70;99.90;;;;;;4956915;28;20547;-81
2022/09/27 11:16:45;;;;;;;1.95;0.77;;;13.70;99.90;;;;;;4957291;28;20062;-76
2022/09/27 11:19:32;;;;;;;1.83;0.60;;;13.70;99.90;;;;;;4957083;28;20046;-78
2022/09/27 11:22:26;;;;;;;2.15;0.60;;;13.70;99.90;;;;;;4957587;29;20043;-81
2022/09/27 11:25:17;;;;;;;1.67;0.60;;;13.70;99.90;;;;;;4957441;28;20123;-80
2022/09/27 11:27:57;;;;;;;1.20;0.57;;;13.60;99.90;;;;;;4956947;28;20555;-80
2022/09/27 11:30:25;;;;;;;3.22;0.75;;;13.70;99.90;;;;;;4957788;28;20492;-79
2022/09/27 11:33:00;;;;;;;2.67;0.95;;;13.80;99.90;;;;;;4956993;28;20051;-76
2022/09/27 11:35:37;;;;;;;2.13;0.65;;;13.90;99.90;;;;;;4956961;29;20130;-77
2022/09/27 11:38:22;;;;;;;1.10;0.60;;;13.90;99.90;;;;;;4957061;29;20078;-77
2022/09/27 11:41:18;;;;;;;3.05;0.80;;;14.00;99.90;;;;;;4957040;28;20495;-76
2022/09/27 11:44:16;;;;;;;2.53;0.70;;;14.00;99.90;;;;;;4957113;28;20082;-81
2022/09/27 11:46:49;;;;;;;2.17;0.60;;;13.80;99.90;;;;;;4956851;28;20043;-79
2022/09/27 11:49:35;;;;;;;1.33;0.60;;;13.80;99.90;;;;;;4956796;28;20053;-80
2022/09/27 11:52:35;;;;;;;3.42;0.80;;;13.40;99.90;;;;;;4956695;29;20097;-76
2022/09/27 11:55:20;;;;;;;2.72;0.95;;;13.20;99.90;;;;;;4956633;28;20086;-78
2022/09/27 11:58:08;;;;;;;1.55;0.60;;;13.10;99.90;;;;;;4956923;28;20137;-79
2022/09/27 12:01:00;;;;;;;1.80;0.80;;;12.90;99.90;;;;;;4957041;29;20094;-77
2022/09/27 12:03:34;;;;;;;1.77;0.60;;;12.70;99.90;;;;;;4945793;29;20404;-78
2022/09/27 12:06:12;;;;;;;1.70;0.60;;;12.70;99.90;;;;;;4956721;29;20482;-77
2022/09/27 12:08:43;;;;;;;;;;;12.70;99.90;;;;;;4957101;28;20475;-80
2022/09/27 12:11:24;;;;;;;2.65;0.73;;;12.70;99.90;;;;;;4956289;28;19977;-78
2022/09/27 12:14:16;;;;;;;3.78;0.68;;;12.80;99.90;;;;;;4956241;29;20440;-79
2022/09/27 12:16:44;;;;;;;1.50;0.60;;;12.90;99.90;;;;;;4955738;29;20488;-79
2022/09/27 12:19:26;;;;;;;1.90;0.90;;;13.20;99.90;;;;;;4956197;28;20051;-78
2022/09/27 12:21:54;;;;;;;1.95;0.60;;;13.10;99.90;;;;;;4956246;28;20059;-80
2022/09/27 12:24:22;;;;;;;1.08;0.50;;;13.30;99.90;;;;;;4955941;28;20578;-82
2022/09/27 12:26:53;;;;;;;1.83;0.50;;;13.20;99.90;;;;;;4956039;28;20087;-80
2022/09/27 12:29:31;;;;;;;1.15;0.50;;;13.30;99.90;;;;;;4955963;28;20051;-78
2022/09/27 12:32:11;;;;;;;1.00;0.50;;;13.50;99.90;;;;;;4956158;28;20055;-81
2022/09/27 12:34:45;;;;;;;1.63;0.45;;;13.60;99.90;;;;;;4955060;29;20095;-79
2022/09/27 12:37:38;;;;;;;0.68;0.50;;;13.70;99.90;;;;;;4956385;28;20443;-77
2022/09/27 12:40:30;;;;;;;0.90;0.60;;;13.80;99.90;;;;;;4955880;29;20122;-77
2022/09/27 12:43:02;;;;;;;0.60;0.40;;;13.90;99.90;;;;;;4955834;28;20062;-78
2022/09/27 12:45:44;;;;;;;0.63;0.40;;;14.10;99.90;;;;;;4955483;28;20098;-79
2022/09/27 12:48:24;;;;;;;1.02;0.47;;;14.10;99.90;;;;;;4956087;28;20473;-79
2022/09/27 12:50:57;;;;;;;1.77;0.50;;;14.10;99.90;;;;;;4955909;29;20397;-79
2022/09/27 12:53:40;;;;;;;1.02;0.50;;;14.20;99.90;;;;;;4955871;28;20376;-76
2022/09/27 12:56:17;;;;;;;1.00;0.45;;;13.90;99.90;;;;;;4956161;28;20051;-80
2022/09/27 12:59:06;;;;;;;2.42;0.50;;;13.90;99.90;;;;;;4956052;29;20134;-81
2022/09/27 13:01:48;;;;;;;1.67;0.50;;;14.20;99.90;;;;;;4955877;28;20135;-80
2022/09/27 13:04:28;;;;;;;1.48;0.73;;;14.00;99.90;;;;;;4955546;29;20047;-79
2022/09/27 13:07:17;;;;;;;1.05;0.50;;;14.00;99.90;;;;;;4954834;29;20137;-78
2022/09/27 13:09:58;;;;;;;1.38;0.52;;;14.10;99.90;;;;;;4955787;29;20062;-78
2022/09/27 13:12:27;;;;;;;3.33;0.85;;;14.20;99.90;;;;;;4955202;29;20492;-80
2022/09/27 13:15:00;;;;;;;1.42;0.63;;;14.20;99.90;;;;;;4955515;28;20043;-81
2022/09/27 13:17:43;;;;;;;2.78;0.80;;;14.30;99.90;;;;;;4955484;28;20047;-79
2022/09/27 13:20:36;;;;;;;3.78;0.80;;;14.10;99.90;;;;;;4955736;28;20059;-77
2022/09/27 13:23:24;;;;;;;2.10;0.63;;;14.10;99.90;;;;;;4955368;28;20046;-78
2022/09/27 13:26:03;;;;;;;2.35;1.13;;;14.00;99.90;;;;;;4955266;29;20063;-82
2022/09/27 13:28:31;;;;;;;1.70;0.80;;;13.90;99.90;;;;;;4955604;29;20047;-81